createdAt,value
2023-05-20T00:00:01.464Z,7.30
2023-05-20T00:02:31.712Z,7.47
2023-05-20T00:04:59.915Z,7.70
2023-05-20T00:07:27.949Z,7.43
2023-05-20T00:09:56.190Z,7.20
2023-05-20T00:12:24.131Z,7.70
2023-05-20T00:14:53.760Z,7.40
2023-05-20T00:17:22.516Z,7.37
2023-05-20T00:19:51.830Z,8.10
2023-05-20T00:22:19.790Z,7.50
2023-05-20T00:24:47.746Z,7.83
2023-05-20T00:27:15.691Z,7.40
2023-05-20T00:29:43.533Z,9.23
2023-05-20T00:32:11.453Z,8.13
2023-05-20T00:34:39.295Z,7.63
2023-05-20T00:37:08.590Z,7.87
2023-05-20T00:39:36.606Z,7.87
2023-05-20T00:42:05.066Z,8.20
2023-05-20T00:44:33.413Z,7.30
2023-05-20T00:47:02.611Z,8.43
2023-05-20T00:49:30.669Z,8.60
2023-05-20T00:51:58.728Z,8.20
2023-05-20T00:54:28.135Z,7.33
2023-05-20T00:56:56.699Z,7.90
2023-05-20T00:59:25.366Z,8.73
2023-05-20T01:01:53.695Z,7.70
2023-05-20T01:04:21.866Z,7.83
2023-05-20T01:06:49.950Z,8.13
2023-05-20T01:09:17.848Z,7.97
2023-05-20T01:11:53.003Z,8.17
2023-05-20T01:14:25.026Z,7.83
2023-05-20T01:16:56.152Z,7.37
2023-05-20T01:19:39.361Z,7.90
2023-05-20T01:22:12.513Z,7.80
2023-05-20T01:24:43.056Z,8.50
2023-05-20T01:27:13.471Z,8.03
2023-05-20T01:29:44.183Z,7.93
2023-05-20T01:32:13.713Z,7.97
2023-05-20T01:34:43.030Z,7.70
2023-05-20T01:37:11.954Z,7.80
2023-05-20T01:39:42.662Z,7.90
2023-05-20T01:42:12.582Z,8.00
2023-05-20T01:44:40.883Z,7.97
2023-05-20T01:47:08.932Z,7.33
2023-05-20T01:49:37.002Z,8.10
2023-05-20T01:52:05.770Z,8.13
2023-05-20T01:54:34.805Z,8.03
2023-05-20T01:57:04.807Z,7.60
2023-05-20T01:59:32.697Z,9.33
2023-05-20T02:02:01.670Z,8.53
2023-05-20T02:04:29.795Z,8.47
2023-05-20T02:06:57.682Z,8.57
2023-05-20T02:09:25.690Z,8.00
2023-05-20T02:11:53.908Z,8.10
2023-05-20T02:14:23.256Z,8.70
2023-05-20T02:16:51.354Z,8.90
2023-05-20T02:19:23.797Z,8.50
2023-05-20T02:21:52.496Z,8.57
2023-05-20T02:24:21.240Z,8.40
2023-05-20T02:26:51.248Z,8.50
2023-05-20T02:29:22.005Z,7.80
2023-05-20T02:31:52.519Z,8.97
2023-05-20T02:34:22.210Z,9.03
2023-05-20T02:36:51.017Z,8.03
2023-05-20T02:39:18.946Z,8.00
2023-05-20T02:41:46.867Z,7.70
2023-05-20T02:44:14.999Z,7.77
2023-05-20T02:46:43.215Z,8.37
2023-05-20T02:49:12.549Z,8.03
2023-05-20T02:51:41.519Z,8.67
2023-05-20T02:54:09.461Z,8.83
2023-05-20T02:56:37.347Z,8.60
2023-05-20T02:59:06.434Z,9.07
2023-05-20T03:01:35.591Z,8.43
2023-05-20T03:04:04.698Z,7.67
2023-05-20T03:06:34.210Z,8.70
2023-05-20T03:09:02.200Z,8.10
2023-05-20T03:11:31.196Z,8.83
2023-05-20T03:13:59.162Z,8.77
2023-05-20T03:16:28.292Z,8.57
2023-05-20T03:18:56.523Z,8.10
2023-05-20T03:21:25.215Z,8.00
2023-05-20T03:23:55.017Z,8.80
2023-05-20T03:26:23.263Z,8.17
2023-05-20T03:28:52.006Z,8.07
2023-05-20T03:31:20.284Z,9.10
2023-05-20T03:33:48.302Z,8.90
2023-05-20T03:36:16.296Z,8.10
2023-05-20T03:38:44.285Z,8.97
2023-05-20T03:41:13.883Z,8.90
2023-05-20T03:43:42.008Z,6.57
2023-05-20T03:46:09.988Z,8.20
2023-05-20T03:48:37.912Z,8.87
2023-05-20T03:51:06.015Z,8.17
2023-05-20T03:53:34.577Z,8.00
2023-05-20T03:56:02.745Z,9.27
2023-05-20T03:58:33.288Z,8.50
2023-05-20T04:01:01.235Z,8.63
2023-05-20T04:03:30.194Z,8.80
2023-05-20T04:05:58.327Z,8.80
2023-05-20T04:08:26.896Z,8.73
2023-05-20T04:10:57.155Z,9.43
2023-05-20T04:13:26.314Z,9.10
2023-05-20T04:15:55.671Z,8.87
2023-05-20T04:18:24.647Z,9.33
2023-05-20T04:20:55.782Z,9.70
2023-05-20T04:23:23.816Z,8.90
2023-05-20T04:25:51.984Z,9.50
2023-05-20T04:28:23.921Z,8.87
2023-05-20T04:31:00.978Z,8.23
2023-05-20T04:33:29.042Z,9.43
2023-05-20T04:35:58.697Z,9.60
2023-05-20T04:38:30.176Z,8.67
2023-05-20T04:40:58.928Z,8.50
2023-05-20T04:43:30.890Z,9.17
2023-05-20T04:46:06.008Z,12.30
2023-05-20T04:48:34.868Z,9.80
2023-05-20T04:51:03.098Z,9.20
2023-05-20T04:53:33.990Z,8.67
2023-05-20T04:56:03.510Z,8.50
2023-05-20T04:58:31.999Z,8.53
2023-05-20T05:01:02.774Z,9.37
2023-05-20T05:03:31.452Z,8.07
2023-05-20T05:06:00.305Z,8.60
2023-05-20T05:08:28.481Z,7.87
2023-05-20T05:10:56.514Z,8.07
2023-05-20T05:13:24.643Z,8.90
2023-05-20T05:15:59.697Z,9.03
2023-05-20T05:18:30.521Z,8.20
2023-05-20T05:21:02.803Z,8.50
2023-05-20T05:23:31.134Z,8.80
2023-05-20T05:25:59.508Z,8.83
2023-05-20T05:28:27.953Z,9.13
2023-05-20T05:30:56.681Z,9.53
2023-05-20T05:33:24.806Z,9.23
2023-05-20T05:35:54.830Z,8.60
2023-05-20T05:38:22.787Z,8.40
2023-05-20T05:40:50.770Z,9.03
2023-05-20T05:43:19.146Z,8.73
2023-05-20T05:45:49.016Z,10.90
2023-05-20T05:48:16.899Z,8.90
2023-05-20T05:50:48.074Z,9.23
2023-05-20T05:53:19.348Z,8.20
2023-05-20T05:55:49.662Z,9.00
2023-05-20T05:58:18.276Z,9.00
2023-05-20T06:00:46.864Z,9.50
2023-05-20T06:03:15.071Z,8.93
2023-05-20T06:05:46.439Z,9.00
2023-05-20T06:08:14.442Z,8.67
2023-05-20T06:10:48.871Z,8.57
2023-05-20T06:13:21.907Z,9.87
2023-05-20T06:17:15.190Z,9.47
2023-05-20T06:19:43.546Z,8.97
2023-05-20T06:22:11.446Z,10.77
2023-05-20T06:24:39.393Z,10.30
2023-05-20T06:27:09.196Z,9.40
2023-05-20T06:29:37.395Z,9.40
2023-05-20T06:32:05.854Z,9.17
2023-05-20T06:34:33.898Z,10.70
2023-05-20T06:37:02.417Z,10.00
2023-05-20T06:39:30.694Z,9.73
2023-05-20T06:41:58.698Z,8.73
2023-05-20T06:44:32.402Z,8.40
2023-05-20T06:47:02.798Z,9.47
2023-05-20T06:49:32.266Z,9.37
2023-05-20T06:52:01.796Z,9.40
2023-05-20T06:54:30.598Z,10.73
2023-05-20T06:56:58.626Z,8.50
2023-05-20T06:59:26.622Z,9.80
2023-05-20T07:01:56.029Z,9.70
2023-05-20T07:04:24.261Z,8.87
2023-05-20T07:06:52.283Z,9.90
2023-05-20T07:09:21.566Z,9.77
2023-05-20T07:11:50.437Z,9.37
2023-05-20T07:14:18.842Z,8.43
2023-05-20T07:16:47.938Z,9.33
2023-05-20T07:19:17.287Z,8.83
2023-05-20T07:21:45.460Z,8.60
2023-05-20T07:24:23.306Z,8.90
2023-05-20T07:26:51.339Z,8.33
2023-05-20T07:29:19.416Z,7.70
2023-05-20T07:31:47.685Z,9.20
2023-05-20T07:34:18.854Z,8.30
2023-05-20T07:36:47.261Z,9.30
2023-05-20T07:39:16.474Z,8.87
2023-05-20T07:41:45.289Z,9.10
2023-05-20T07:44:14.433Z,7.47
2023-05-20T07:46:46.182Z,8.37
2023-05-20T07:49:14.328Z,7.20
2023-05-20T07:51:43.694Z,7.43
2023-05-20T07:54:12.670Z,7.57
2023-05-20T07:56:41.057Z,7.37
2023-05-20T07:59:10.944Z,8.00
2023-05-20T08:01:45.419Z,7.00
2023-05-20T08:04:15.978Z,7.70
2023-05-20T08:06:45.727Z,7.87
2023-05-20T08:09:20.870Z,7.63
2023-05-20T08:11:52.393Z,7.33
2023-05-20T08:14:20.297Z,7.90
2023-05-20T08:16:53.783Z,7.20
2023-05-20T08:19:24.602Z,7.30
2023-05-20T08:21:54.407Z,7.07
2023-05-20T08:24:22.777Z,8.00
2023-05-20T08:26:50.820Z,7.67
2023-05-20T08:29:20.495Z,7.67
2023-05-20T08:31:48.502Z,8.73
2023-05-20T08:34:17.805Z,7.30
2023-05-20T08:36:47.215Z,8.30
2023-05-20T08:39:17.042Z,7.17
2023-05-20T08:41:48.214Z,7.97
2023-05-20T08:44:18.528Z,7.40
2023-05-20T08:46:47.518Z,7.87
2023-05-20T08:49:15.683Z,7.23
2023-05-20T08:51:44.317Z,7.73
2023-05-20T08:54:12.991Z,7.33
2023-05-20T08:56:43.148Z,7.40
2023-05-20T08:59:11.170Z,7.67
2023-05-20T09:01:43.989Z,8.30
2023-05-20T09:04:12.624Z,8.00
2023-05-20T09:06:44.753Z,7.67
2023-05-20T09:09:13.445Z,7.40
2023-05-20T09:11:43.389Z,7.83
2023-05-20T09:14:11.454Z,7.83
2023-05-20T09:16:41.314Z,7.37
2023-05-20T09:19:09.900Z,6.73
2023-05-20T09:21:39.023Z,7.67
2023-05-20T09:24:07.711Z,7.70
2023-05-20T09:26:36.133Z,7.40
2023-05-20T09:29:05.629Z,7.37
2023-05-20T09:31:34.469Z,7.07
2023-05-20T09:34:02.978Z,7.90
2023-05-20T09:36:31.845Z,7.40
2023-05-20T09:39:05.844Z,7.63
2023-05-20T09:41:40.489Z,7.13
2023-05-20T09:44:11.289Z,7.43
2023-05-20T09:46:40.264Z,7.70
2023-05-20T09:49:08.528Z,6.90
2023-05-20T09:51:36.917Z,7.10
2023-05-20T09:54:08.341Z,7.27
2023-05-20T09:56:37.441Z,7.60
2023-05-20T09:59:06.709Z,7.87
2023-05-20T10:01:36.256Z,7.10
2023-05-20T10:04:07.001Z,7.10
2023-05-20T10:07:03.631Z,8.13
2023-05-20T10:09:51.342Z,10.80
2023-05-20T10:12:28.480Z,11.17
2023-05-20T10:15:05.873Z,8.00
2023-05-20T10:17:43.758Z,7.60
2023-05-20T10:20:12.405Z,8.10
2023-05-20T10:22:40.991Z,7.40
2023-05-20T10:25:14.083Z,7.43
2023-05-20T10:27:46.288Z,8.20
2023-05-20T10:30:18.441Z,7.20
2023-05-20T10:32:56.785Z,7.03
2023-05-20T10:35:27.189Z,7.60
2023-05-20T10:37:56.589Z,7.40
2023-05-20T10:40:24.521Z,7.87
2023-05-20T10:42:52.465Z,7.67
2023-05-20T10:45:27.771Z,8.53
2023-05-20T10:47:59.078Z,7.60
2023-05-20T10:50:30.784Z,6.70
2023-05-20T10:53:05.472Z,8.40
2023-05-20T10:55:39.392Z,8.40
2023-05-20T10:58:07.784Z,7.93
2023-05-20T11:00:37.106Z,7.53
2023-05-20T11:03:07.929Z,7.80
2023-05-20T11:05:37.145Z,7.90
2023-05-20T11:08:16.934Z,7.83
2023-05-20T11:10:57.702Z,10.30
2023-05-20T11:13:27.122Z,8.70
2023-05-20T11:15:55.683Z,7.47
2023-05-20T11:18:25.125Z,7.77
2023-05-20T11:20:54.354Z,7.97
2023-05-20T11:23:23.418Z,8.00
2023-05-20T11:25:51.990Z,7.80
2023-05-20T11:28:21.316Z,8.20
2023-05-20T11:30:49.906Z,8.60
2023-05-20T11:33:18.659Z,8.20
2023-05-20T11:35:49.556Z,7.60
2023-05-20T11:38:18.096Z,7.00
2023-05-20T11:40:51.029Z,8.50
2023-05-20T11:43:20.528Z,8.23
2023-05-20T11:45:53.838Z,8.00
2023-05-20T11:48:22.376Z,7.70
2023-05-20T11:50:51.663Z,7.30
2023-05-20T11:53:20.881Z,7.83
2023-05-20T11:55:50.476Z,8.27
2023-05-20T11:58:20.477Z,7.50
2023-05-20T12:00:53.254Z,8.57
2023-05-20T12:03:23.437Z,9.07
2023-05-20T12:05:54.172Z,8.67
2023-05-20T12:08:22.762Z,8.07
2023-05-20T12:10:50.886Z,8.27
2023-05-20T12:13:19.427Z,8.73
2023-05-20T12:15:47.421Z,7.73
2023-05-20T12:18:15.507Z,8.13
2023-05-20T12:20:43.755Z,8.10
2023-05-20T12:23:13.124Z,8.60
2023-05-20T12:25:41.017Z,8.80
2023-05-20T12:28:09.139Z,8.20
2023-05-20T12:30:37.292Z,8.70
2023-05-20T12:33:05.390Z,8.57
2023-05-20T12:35:38.762Z,8.67
2023-05-20T12:38:06.980Z,8.10
2023-05-20T12:40:37.085Z,7.97
2023-05-20T12:43:06.307Z,7.90
2023-05-20T12:45:34.449Z,8.20
2023-05-20T12:48:02.782Z,9.60
2023-05-20T12:50:30.685Z,9.37
2023-05-20T12:52:58.603Z,8.93
2023-05-20T12:55:26.548Z,8.10
2023-05-20T12:57:56.864Z,7.90
2023-05-20T13:00:24.908Z,9.47
2023-05-20T13:02:53.189Z,11.93
2023-05-20T13:05:21.599Z,9.17
2023-05-20T13:07:49.960Z,9.53
2023-05-20T13:10:18.363Z,9.90
2023-05-20T13:12:46.924Z,9.53
2023-05-20T13:15:16.865Z,9.00
2023-05-20T13:17:44.891Z,10.07
2023-05-20T13:20:14.048Z,9.83
2023-05-20T13:22:42.035Z,10.10
2023-05-20T13:25:10.521Z,10.30
2023-05-20T13:27:38.469Z,10.00
2023-05-20T13:30:07.696Z,10.80
2023-05-20T13:32:37.150Z,10.90
2023-05-20T13:35:05.597Z,11.00
2023-05-20T13:37:33.579Z,10.00
2023-05-20T13:40:01.523Z,11.63
2023-05-20T13:42:29.917Z,11.20
2023-05-20T13:44:57.930Z,11.13
2023-05-20T13:47:25.996Z,10.23
2023-05-20T13:49:55.307Z,10.10
2023-05-20T13:52:23.335Z,10.03
2023-05-20T13:54:51.553Z,10.07
2023-05-20T13:57:19.642Z,14.97
2023-05-20T13:59:47.615Z,19.97
2023-05-20T14:02:15.631Z,12.30
2023-05-20T14:04:44.948Z,12.83
2023-05-20T14:07:14.380Z,11.20
2023-05-20T14:09:42.298Z,10.70
2023-05-20T14:12:10.267Z,10.60
2023-05-20T14:14:38.158Z,9.93
2023-05-20T14:17:06.120Z,10.67
2023-05-20T14:19:34.115Z,10.00
2023-05-20T14:22:03.324Z,10.17
2023-05-20T14:24:32.617Z,10.97
2023-05-20T14:27:00.738Z,10.50
2023-05-20T14:29:28.588Z,15.60
2023-05-20T14:31:56.770Z,15.20
2023-05-20T14:34:24.806Z,15.13
2023-05-20T14:36:52.887Z,10.03
2023-05-20T14:39:20.787Z,9.57
2023-05-20T14:41:50.022Z,10.47
2023-05-20T14:44:17.921Z,9.20
2023-05-20T14:46:45.866Z,10.17
2023-05-20T14:49:13.824Z,8.77
2023-05-20T14:51:42.543Z,10.20
2023-05-20T14:54:10.665Z,10.27
2023-05-20T14:56:39.065Z,8.83
2023-05-20T14:59:08.475Z,9.50
2023-05-20T15:01:37.060Z,10.30
2023-05-20T15:04:05.418Z,9.40
2023-05-20T15:06:34.973Z,8.97
2023-05-20T15:09:02.956Z,8.93
2023-05-20T15:11:30.856Z,10.03
2023-05-20T15:13:58.946Z,9.33
2023-05-20T15:16:28.539Z,9.50
2023-05-20T15:18:56.597Z,10.10
2023-05-20T15:21:24.494Z,9.07
2023-05-20T15:23:52.681Z,8.90
2023-05-20T15:26:21.641Z,8.97
2023-05-20T15:28:49.616Z,8.37
2023-05-20T15:31:17.759Z,8.90
2023-05-20T15:33:47.334Z,8.70
2023-05-20T15:36:15.409Z,9.20
2023-05-20T15:38:43.993Z,8.43
2023-05-20T15:41:13.537Z,7.73
2023-05-20T15:43:42.306Z,9.30
2023-05-20T15:46:10.241Z,8.30
2023-05-20T15:48:39.019Z,9.27
2023-05-20T15:51:08.339Z,7.97
2023-05-20T15:53:37.494Z,8.60
2023-05-20T15:56:07.884Z,9.10
2023-05-20T15:58:36.061Z,9.00
2023-05-20T16:01:04.183Z,8.30
2023-05-20T16:03:32.342Z,8.27
2023-05-20T16:06:00.421Z,9.43
2023-05-20T16:08:30.272Z,9.43
2023-05-20T16:10:58.246Z,8.40
2023-05-20T16:13:26.183Z,8.40
2023-05-20T16:15:57.595Z,9.93
2023-05-20T16:18:25.932Z,9.40
2023-05-20T16:20:53.836Z,7.80
2023-05-20T16:23:21.880Z,8.30
2023-05-20T16:25:51.532Z,9.17
2023-05-20T16:28:19.653Z,9.10
2023-05-20T16:30:47.519Z,8.23
2023-05-20T16:33:17.345Z,9.40
2023-05-20T16:35:45.330Z,9.03
2023-05-20T16:38:13.405Z,8.83
2023-05-20T16:40:41.411Z,9.10
2023-05-20T16:43:10.765Z,7.80
2023-05-20T16:45:38.700Z,8.73
2023-05-20T16:48:07.016Z,8.60
2023-05-20T16:50:35.080Z,9.37
2023-05-20T16:53:03.241Z,8.77
2023-05-20T16:55:31.243Z,7.33
2023-05-20T16:57:59.154Z,9.10
2023-05-20T17:00:28.472Z,9.00
2023-05-20T17:02:56.523Z,9.20
2023-05-20T17:05:25.510Z,9.87
2023-05-20T17:07:55.722Z,8.90
2023-05-20T17:10:23.820Z,8.90
2023-05-20T17:12:51.729Z,9.60
2023-05-20T17:15:19.678Z,9.50
2023-05-20T17:17:48.981Z,9.53
2023-05-20T17:20:16.951Z,9.63
2023-05-20T17:22:44.980Z,10.13
2023-05-20T17:25:13.187Z,10.33
2023-05-20T17:27:41.459Z,10.70
2023-05-20T17:30:09.992Z,10.87
2023-05-20T17:32:38.682Z,18.30
2023-05-20T17:35:09.405Z,16.90
2023-05-20T17:37:37.781Z,15.27
2023-05-20T17:40:06.908Z,13.10
2023-05-20T17:42:35.604Z,10.60
2023-05-20T17:45:03.540Z,11.00
2023-05-20T17:47:31.724Z,10.63
2023-05-20T17:50:00.031Z,10.60
2023-05-20T17:52:29.422Z,9.90
2023-05-20T17:54:57.384Z,10.60
2023-05-20T17:57:25.676Z,9.53
2023-05-20T17:59:54.507Z,10.03
2023-05-20T18:02:22.545Z,10.90
2023-05-20T18:04:50.561Z,10.73
2023-05-20T18:07:18.682Z,10.10
2023-05-20T18:09:48.022Z,11.30
2023-05-20T18:12:16.576Z,10.90
2023-05-20T18:14:44.550Z,11.00
2023-05-20T18:17:12.465Z,11.17
2023-05-20T18:19:40.573Z,12.20
2023-05-20T18:22:08.632Z,11.43
2023-05-20T18:24:36.605Z,11.80
2023-05-20T18:27:06.473Z,11.83
2023-05-20T18:29:34.504Z,11.60
2023-05-20T18:32:02.609Z,11.20
2023-05-20T18:34:33.000Z,11.20
2023-05-20T18:37:01.122Z,11.03
2023-05-20T18:39:29.046Z,11.80
2023-05-20T18:41:57.098Z,11.77
2023-05-20T18:44:26.462Z,12.20
2023-05-20T18:46:54.557Z,11.80
2023-05-20T18:49:22.417Z,11.10
2023-05-20T18:51:50.311Z,11.47
2023-05-20T18:54:18.301Z,11.10
2023-05-20T18:56:48.387Z,12.37
2023-05-20T18:59:16.695Z,25.80
2023-05-20T19:01:46.026Z,37.80
2023-05-20T19:04:14.017Z,12.20
2023-05-20T19:06:41.926Z,13.30
2023-05-20T19:09:09.853Z,12.40
2023-05-20T19:11:37.732Z,11.87
2023-05-20T19:14:07.345Z,10.83
2023-05-20T19:16:35.402Z,10.90
2023-05-20T19:19:04.870Z,11.80
2023-05-20T19:21:33.535Z,11.70
2023-05-20T19:24:01.481Z,12.50
2023-05-20T19:26:29.427Z,11.27
2023-05-20T19:28:57.302Z,11.87
2023-05-20T19:31:25.588Z,11.50
2023-05-20T19:33:53.668Z,11.17
2023-05-20T19:36:23.046Z,12.00
2023-05-20T19:38:51.004Z,12.47
2023-05-20T19:41:19.461Z,11.63
2023-05-20T19:43:47.402Z,12.00
2023-05-20T19:46:15.583Z,11.57
2023-05-20T19:48:43.596Z,11.73
2023-05-20T19:51:11.711Z,11.47
2023-05-20T19:53:41.273Z,10.97
2023-05-20T19:56:09.272Z,10.80
2023-05-20T19:58:37.370Z,13.37
2023-05-20T20:01:06.703Z,11.40
2023-05-20T20:03:35.003Z,13.87
2023-05-20T20:06:04.152Z,11.00
2023-05-20T20:08:32.548Z,12.43
2023-05-20T20:11:01.812Z,12.63
2023-05-20T20:13:30.479Z,12.87
2023-05-20T20:15:58.737Z,13.43
2023-05-20T20:18:26.796Z,12.27
2023-05-20T20:20:59.785Z,12.87
2023-05-20T20:23:27.943Z,11.80
2023-05-20T20:25:56.480Z,13.00
2023-05-20T20:28:26.309Z,13.20
2023-05-20T20:30:54.584Z,12.50
2023-05-20T20:33:22.711Z,12.00
2023-05-20T20:35:54.402Z,12.17
2023-05-20T20:38:22.460Z,12.30
2023-05-20T20:40:53.433Z,12.30
2023-05-20T20:43:22.772Z,13.57
2023-05-20T20:45:53.290Z,12.80
2023-05-20T20:48:26.731Z,12.30
2023-05-20T20:50:55.066Z,12.73
2023-05-20T20:53:23.001Z,12.13
2023-05-20T20:55:51.730Z,11.23
2023-05-20T20:58:19.670Z,12.33
2023-05-20T21:00:48.701Z,11.70
2023-05-20T21:03:18.996Z,10.90
2023-05-20T21:05:48.513Z,10.67
2023-05-20T21:08:16.419Z,13.20
2023-05-20T21:10:44.541Z,12.10
2023-05-20T21:13:12.657Z,12.60
2023-05-20T21:15:41.734Z,12.37
2023-05-20T21:18:09.674Z,10.90
2023-05-20T21:20:38.968Z,11.43
2023-05-20T21:23:06.983Z,11.80
2023-05-20T21:25:34.979Z,10.60
2023-05-20T21:28:03.105Z,11.33
2023-05-20T21:30:31.031Z,11.70
2023-05-20T21:32:58.996Z,11.23
2023-05-20T21:35:27.028Z,11.37
2023-05-20T21:37:56.366Z,11.40
2023-05-20T21:40:24.445Z,11.03
2023-05-20T21:42:52.588Z,12.63
2023-05-20T21:45:20.573Z,10.90
2023-05-20T21:47:48.612Z,11.90
2023-05-20T21:50:16.555Z,10.97
2023-05-20T21:52:44.531Z,11.10
2023-05-20T21:55:13.867Z,12.87
2023-05-20T21:57:41.760Z,11.03
2023-05-20T22:00:11.500Z,11.37
2023-05-20T22:02:39.576Z,11.50
2023-05-20T22:05:07.869Z,11.40
2023-05-20T22:07:35.932Z,11.20
2023-05-20T22:10:04.190Z,10.83
2023-05-20T22:12:35.870Z,11.67
2023-05-20T22:15:03.955Z,10.13
2023-05-20T22:17:34.188Z,10.93
2023-05-20T22:20:04.646Z,10.37
2023-05-20T22:22:32.571Z,11.00
2023-05-20T22:25:00.518Z,12.10
2023-05-20T22:27:28.635Z,10.53
2023-05-20T22:29:58.344Z,11.03
2023-05-20T22:32:26.323Z,11.73
2023-05-20T22:34:58.374Z,10.80
2023-05-20T22:37:28.792Z,10.53
2023-05-20T22:39:57.126Z,11.07
2023-05-20T22:42:25.117Z,11.57
2023-05-20T22:44:53.777Z,10.93
2023-05-20T22:47:23.137Z,10.63
2023-05-20T22:49:51.392Z,10.97
2023-05-20T22:52:21.259Z,11.10
2023-05-20T22:54:49.242Z,11.33
2023-05-20T22:57:18.819Z,11.53
2023-05-20T22:59:47.032Z,10.67
2023-05-20T23:02:14.932Z,10.03
2023-05-20T23:04:44.475Z,11.97
2023-05-20T23:07:15.217Z,11.70
2023-05-20T23:09:43.134Z,12.40
2023-05-20T23:12:11.135Z,11.07
2023-05-20T23:14:39.160Z,11.40
2023-05-20T23:17:07.304Z,13.03
2023-05-20T23:19:35.546Z,11.80
2023-05-20T23:22:05.108Z,12.00
2023-05-20T23:24:33.019Z,11.30
2023-05-20T23:27:00.917Z,10.73
2023-05-20T23:29:28.980Z,12.23
2023-05-20T23:31:56.837Z,11.37
2023-05-20T23:34:24.774Z,10.90
2023-05-20T23:36:52.884Z,11.57
2023-05-20T23:39:22.680Z,11.67
2023-05-20T23:41:50.647Z,11.53
2023-05-20T23:44:18.581Z,12.90
2023-05-20T23:46:46.462Z,11.57
2023-05-20T23:49:14.383Z,11.47
2023-05-20T23:51:42.223Z,11.30
2023-05-20T23:54:10.184Z,13.10
2023-05-20T23:56:39.492Z,11.77
2023-05-20T23:59:07.424Z,10.70
